createdAt,value
2023-01-09T00:05:10.535Z,80.1
2023-01-09T00:10:45.984Z,79.8
2023-01-09T00:16:22.647Z,79.4
2023-01-09T00:21:58.344Z,79.3
2023-01-09T00:27:33.457Z,79.3
2023-01-09T00:33:13.121Z,79.1
2023-01-09T00:38:49.515Z,78.8
2023-01-09T00:44:24.673Z,78.8
2023-01-09T00:50:00.665Z,78.7
2023-01-09T00:55:35.966Z,78.9
2023-01-09T01:01:16.192Z,78.6
2023-01-09T01:06:53.043Z,78.6
2023-01-09T01:12:29.991Z,78.8
2023-01-09T01:18:05.433Z,78.8
2023-01-09T01:23:40.726Z,78.9
2023-01-09T01:29:17.008Z,78.8
2023-01-09T01:34:51.929Z,79.1
2023-01-09T01:40:28.041Z,78.9
2023-01-09T01:46:03.327Z,79.9
2023-01-09T01:51:39.614Z,80
2023-01-09T01:57:15.569Z,79.7
2023-01-09T02:02:52.707Z,79.8
2023-01-09T02:08:29.239Z,79.3
2023-01-09T02:14:04.800Z,79.2
2023-01-09T02:19:41.148Z,78.9
2023-01-09T02:25:22.218Z,78.8
2023-01-09T02:30:58.625Z,78.7
2023-01-09T02:36:33.765Z,78.8
2023-01-09T02:42:08.853Z,78.6
2023-01-09T02:48:05.934Z,78.1
2023-01-09T02:53:38.824Z,78
2023-01-09T02:59:14.076Z,78.1
2023-01-09T03:04:49.966Z,77.8
2023-01-09T03:10:24.946Z,78
2023-01-09T03:16:00.232Z,77.5
2023-01-09T03:21:37.104Z,77
2023-01-09T03:27:12.640Z,76.5
2023-01-09T03:32:48.402Z,76.1
2023-01-09T03:38:23.676Z,75.8
2023-01-09T03:43:58.750Z,75.9
2023-01-09T03:49:55.900Z,76
2023-01-09T03:55:28.977Z,76.5
2023-01-09T04:01:05.743Z,76.2
2023-01-09T04:06:42.160Z,75.8
2023-01-09T04:12:17.811Z,75.6
2023-01-09T04:17:52.710Z,75.4
2023-01-09T04:23:28.964Z,75.5
2023-01-09T04:29:04.162Z,75.1
2023-01-09T04:34:40.207Z,75.3
2023-01-09T04:40:15.340Z,75.2
2023-01-09T04:45:50.959Z,75.5
2023-01-09T04:51:26.469Z,75.7
2023-01-09T04:57:01.470Z,75.9
2023-01-09T05:02:37.651Z,75.7
2023-01-09T05:08:13.874Z,75.8
2023-01-09T05:13:48.960Z,75.8
2023-01-09T05:19:24.594Z,75.8
2023-01-09T05:25:01.253Z,76.1
2023-01-09T05:30:36.434Z,75.9
2023-01-09T05:36:11.501Z,75.7
2023-01-09T05:41:46.649Z,75.8
2023-01-09T05:47:43.885Z,75
2023-01-09T05:53:16.893Z,74.5
2023-01-09T05:58:53.375Z,74.1
2023-01-09T06:04:28.569Z,73.9
2023-01-09T06:10:04.745Z,74.6
2023-01-09T06:15:40.342Z,74.5
2023-01-09T06:21:17.904Z,74.5
2023-01-09T06:26:53.409Z,74.4
2023-01-09T06:32:28.762Z,74.1
2023-01-09T06:38:03.783Z,74.2
2023-01-09T06:43:38.823Z,73.8
2023-01-09T06:49:36.774Z,74.4
2023-01-09T06:55:09.272Z,74.7
2023-01-09T07:00:44.693Z,74.9
2023-01-09T07:06:19.789Z,74
2023-01-09T07:11:56.034Z,74.3
2023-01-09T07:17:31.681Z,74.6
2023-01-09T07:23:06.703Z,74.8
2023-01-09T07:28:41.639Z,74.7
2023-01-09T07:34:18.369Z,75.7
2023-01-09T07:39:53.500Z,76.4
2023-01-09T07:45:29.737Z,76.4
2023-01-09T07:51:06.342Z,76.8
2023-01-09T07:56:47.732Z,78.6
2023-01-09T08:02:22.575Z,81.7
2023-01-09T08:08:00.389Z,84.1
2023-01-09T08:13:37.084Z,83.4
2023-01-09T08:19:12.326Z,82
2023-01-09T08:24:49.251Z,83.3
2023-01-09T08:30:25.655Z,83.9
2023-01-09T08:36:01.100Z,85.9
2023-01-09T08:41:36.885Z,84.7
2023-01-09T08:47:12.065Z,85.3
2023-01-09T08:52:48.067Z,85.3
2023-01-09T08:58:23.464Z,84.1
2023-01-09T09:03:59.258Z,84.8
2023-01-09T09:09:35.172Z,85.2
2023-01-09T09:15:10.828Z,84.9
2023-01-09T09:20:46.133Z,85.1
2023-01-09T09:26:22.497Z,85.3
2023-01-09T09:32:12.965Z,84.7
2023-01-09T09:38:06.762Z,83.7
2023-01-09T09:43:45.417Z,82.2
2023-01-09T09:49:22.143Z,82.9
2023-01-09T09:54:57.482Z,82.9
2023-01-09T10:00:32.932Z,82.5
2023-01-09T10:06:08.562Z,83.4
2023-01-09T10:11:44.435Z,84.1
2023-01-09T10:17:19.793Z,82.6
2023-01-09T10:22:55.860Z,80.1
2023-01-09T10:28:31.108Z,77.8
2023-01-09T10:34:06.614Z,85.9
2023-01-09T10:39:41.945Z,85.4
2023-01-09T10:45:17.176Z,84.1
2023-01-09T10:51:08.536Z,83.8
2023-01-09T10:56:43.771Z,82.3
2023-01-09T11:02:19.189Z,81.6
2023-01-09T11:07:55.564Z,83.8
2023-01-09T11:13:31.671Z,80.9
2023-01-09T11:19:07.080Z,78
2023-01-09T11:24:41.906Z,77.2
2023-01-09T11:30:18.737Z,82.3
2023-01-09T11:35:54.745Z,89.2
2023-01-09T11:41:29.854Z,85.1
2023-01-09T11:47:04.897Z,80.6
2023-01-09T11:52:40.946Z,80.7
2023-01-09T11:58:16.002Z,83.8
2023-01-09T12:03:56.104Z,87.1
2023-01-09T12:09:31.852Z,88
2023-01-09T12:15:10.380Z,85.8
2023-01-09T12:20:48.993Z,81.5
2023-01-09T12:26:24.713Z,81.1
2023-01-09T12:32:00.822Z,78.2
2023-01-09T12:37:36.574Z,80.5
2023-01-09T12:43:12.020Z,82.8
2023-01-09T12:48:47.097Z,82.6
2023-01-09T12:54:23.849Z,83.9
2023-01-09T13:00:00.581Z,83.8
2023-01-09T13:05:36.074Z,84.2
2023-01-09T13:11:21.132Z,82.5
2023-01-09T13:16:57.128Z,83.3
2023-01-09T13:22:32.756Z,84.2
2023-01-09T13:28:08.248Z,84.5
2023-01-09T13:33:44.809Z,85.8
2023-01-09T13:39:21.138Z,85.4
2023-01-09T13:44:58.574Z,85
2023-01-09T13:50:33.658Z,82.6
2023-01-09T13:56:12.183Z,81.7
2023-01-09T14:01:48.414Z,83
2023-01-09T14:07:23.972Z,84
2023-01-09T14:12:58.850Z,82.3
2023-01-09T14:18:35.691Z,83.7
2023-01-09T14:24:11.630Z,84.2
2023-01-09T14:29:47.397Z,85.2
2023-01-09T14:35:22.893Z,85.5
2023-01-09T14:40:58.243Z,85.9
2023-01-09T14:46:33.281Z,84.9
2023-01-09T14:52:08.203Z,84.6
2023-01-09T14:57:43.073Z,84.2
2023-01-09T15:03:19.907Z,85.2
2023-01-09T15:08:56.014Z,85.6
2023-01-09T15:14:35.403Z,85.8
2023-01-09T15:20:10.605Z,85.5
2023-01-09T15:25:45.866Z,86.4
2023-01-09T15:31:21.902Z,87.5
2023-01-09T15:36:57.669Z,87.6
2023-01-09T15:42:33.485Z,87.7
2023-01-09T15:48:08.920Z,87.6
2023-01-09T15:53:44.359Z,87
2023-01-09T15:59:19.863Z,87.7
2023-01-09T16:04:55.062Z,88.1
2023-01-09T16:10:29.803Z,88.4
2023-01-09T16:16:05.023Z,88.8
2023-01-09T16:21:40.058Z,89.3
2023-01-09T16:27:20.384Z,89.7
2023-01-09T16:32:56.683Z,90.3
2023-01-09T16:38:31.984Z,90.4
2023-01-09T16:44:17.115Z,90.9
2023-01-09T16:49:52.207Z,91.9
2023-01-09T16:55:27.391Z,91.3
2023-01-09T17:01:02.644Z,86.3
2023-01-09T17:06:39.599Z,84.4
2023-01-09T17:12:18.701Z,88.4
2023-01-09T17:17:53.554Z,89.8
2023-01-09T17:23:29.291Z,89.6
2023-01-09T17:29:04.693Z,89.4
2023-01-09T17:34:45.611Z,89.4
2023-01-09T17:40:21.309Z,89.4
2023-01-09T17:45:57.107Z,88.4
2023-01-09T17:51:33.756Z,87.6
2023-01-09T17:57:09.070Z,87.2
2023-01-09T18:02:44.728Z,87.9
2023-01-09T18:08:20.491Z,88.3
2023-01-09T18:13:56.857Z,88.7
2023-01-09T18:19:32.406Z,89.1
2023-01-09T18:25:07.583Z,89.3
2023-01-09T18:30:52.790Z,88
2023-01-09T18:36:48.613Z,87
2023-01-09T18:42:53.477Z,86.6
2023-01-09T18:48:50.505Z,86.6
2023-01-09T18:54:23.348Z,86.6
2023-01-09T19:00:22.271Z,86.5
2023-01-09T19:05:59.717Z,86.2
2023-01-09T19:11:38.013Z,85.6
2023-01-09T19:17:18.202Z,85.4
2023-01-09T19:22:54.224Z,85.1
2023-01-09T19:28:40.794Z,84.6
2023-01-09T19:34:15.972Z,84.5
2023-01-09T19:39:53.006Z,84.6
2023-01-09T19:45:30.932Z,84.4
2023-01-09T19:51:14.233Z,84
2023-01-09T19:57:10.039Z,83.7
2023-01-09T20:02:46.492Z,83.2
2023-01-09T20:08:21.388Z,83.3
2023-01-09T20:14:05.500Z,83
2023-01-09T20:19:49.839Z,82.8
2023-01-09T20:25:53.119Z,82.8
2023-01-09T20:31:29.335Z,82.6
2023-01-09T20:37:16.146Z,82.5
2023-01-09T20:42:53.929Z,82.6
2023-01-09T20:48:33.610Z,82.7
2023-01-09T20:54:08.832Z,82.7
2023-01-09T20:59:44.110Z,82.5
2023-01-09T21:05:19.618Z,82.6
2023-01-09T21:11:00.766Z,82.3
2023-01-09T21:16:53.655Z,82.2
2023-01-09T21:22:50.435Z,82.2
2023-01-09T21:28:59.847Z,82
2023-01-09T21:34:43.885Z,81.8
2023-01-09T21:40:26.649Z,81.5
2023-01-09T21:46:02.269Z,81.5
2023-01-09T21:51:43.768Z,81.4
2023-01-09T21:57:19.462Z,81.1
2023-01-09T22:02:55.603Z,80.9
2023-01-09T22:08:35.250Z,80.9
2023-01-09T22:14:14.406Z,80.9
2023-01-09T22:19:49.395Z,80.9
2023-01-09T22:25:24.305Z,80.5
2023-01-09T22:30:59.921Z,80.5
2023-01-09T22:36:35.603Z,80.8
2023-01-09T22:42:30.700Z,80.8
2023-01-09T22:48:41.419Z,81.3
2023-01-09T22:54:17.501Z,81.5
2023-01-09T23:00:26.810Z,81.5
2023-01-09T23:06:03.056Z,81.5
2023-01-09T23:11:47.192Z,81.3
2023-01-09T23:18:00.543Z,81.4
2023-01-09T23:23:43.490Z,80.9
2023-01-09T23:29:18.505Z,80.6
2023-01-09T23:34:53.294Z,80.6
2023-01-09T23:40:28.680Z,80.6
2023-01-09T23:46:11.109Z,80.5
2023-01-09T23:51:46.639Z,80.6
2023-01-09T23:57:24.505Z,80.2
